createdAt,value
2019-03-18T00:00:49.987Z,72.09
2019-03-18T00:01:50.149Z,71.62
2019-03-18T00:02:50.007Z,71.62
2019-03-18T00:03:50.028Z,71.52
2019-03-18T00:04:50.011Z,72.19
2019-03-18T00:05:50.011Z,71.52
2019-03-18T00:06:50.021Z,71.52
2019-03-18T00:07:50.034Z,71.43
2019-03-18T00:08:50.026Z,72.28
2019-03-18T00:09:50.043Z,72.19
2019-03-18T00:10:50.052Z,71.81
2019-03-18T00:11:50.064Z,72.19
2019-03-18T00:12:52.155Z,71.81
2019-03-18T00:13:50.050Z,72.56
2019-03-18T00:15:00.726Z,71.62
2019-03-18T00:15:50.053Z,71.81
2019-03-18T00:16:50.049Z,72.19
2019-03-18T00:17:50.113Z,72.00
2019-03-18T00:18:50.069Z,71.43
2019-03-18T00:19:50.069Z,72.19
2019-03-18T00:20:50.077Z,72.00
2019-03-18T00:21:50.079Z,71.90
2019-03-18T00:22:50.116Z,72.00
2019-03-18T00:23:50.083Z,72.19
2019-03-18T00:24:50.097Z,72.00
2019-03-18T00:25:50.161Z,72.00
2019-03-18T00:26:50.080Z,72.09
2019-03-18T00:27:50.106Z,72.00
2019-03-18T00:28:50.104Z,72.09
2019-03-18T00:29:50.098Z,71.81
2019-03-18T00:30:50.128Z,71.81
2019-03-18T00:31:50.154Z,71.52
2019-03-18T00:32:50.112Z,71.62
2019-03-18T00:33:50.123Z,71.90
2019-03-18T00:34:50.155Z,71.52
2019-03-18T00:35:50.161Z,71.62
2019-03-18T00:36:50.113Z,71.43
2019-03-18T00:37:50.141Z,71.62
2019-03-18T00:38:50.154Z,71.62
2019-03-18T00:39:50.133Z,71.52
2019-03-18T00:40:50.172Z,71.81
2019-03-18T00:41:50.151Z,71.33
2019-03-18T00:42:50.222Z,71.04
2019-03-18T00:43:50.174Z,71.52
2019-03-18T00:44:50.166Z,71.71
2019-03-18T00:45:50.225Z,71.90
2019-03-18T00:46:50.147Z,72.00
2019-03-18T00:47:50.153Z,71.90
2019-03-18T00:48:50.184Z,71.71
2019-03-18T00:49:50.166Z,71.62
2019-03-18T00:50:50.174Z,72.38
2019-03-18T00:51:50.191Z,71.71
2019-03-18T00:52:50.187Z,71.71
2019-03-18T00:53:57.293Z,71.62
2019-03-18T00:54:50.181Z,71.62
2019-03-18T00:55:51.778Z,71.71
2019-03-18T00:56:50.202Z,71.90
2019-03-18T00:57:50.211Z,71.14
2019-03-18T00:58:50.198Z,71.23
2019-03-18T00:59:50.254Z,71.04
2019-03-18T01:00:50.209Z,71.18
2019-03-18T01:01:50.247Z,71.33
2019-03-18T01:02:50.241Z,71.14
2019-03-18T01:03:50.238Z,71.84
2019-03-18T01:04:50.243Z,71.33
2019-03-18T01:05:50.276Z,71.52
2019-03-18T01:06:50.230Z,70.95
2019-03-18T01:07:50.287Z,71.52
2019-03-18T01:08:50.242Z,71.14
2019-03-18T01:09:50.239Z,71.43
2019-03-18T01:10:50.247Z,71.23
2019-03-18T01:11:50.293Z,71.14
2019-03-18T01:12:50.282Z,71.52
2019-03-18T01:13:50.325Z,71.14
2019-03-18T01:14:50.287Z,71.33
2019-03-18T01:15:50.263Z,71.33
2019-03-18T01:16:50.320Z,71.23
2019-03-18T01:17:50.305Z,71.33
2019-03-18T01:18:50.322Z,71.23
2019-03-18T01:19:50.300Z,71.52
2019-03-18T01:20:50.305Z,71.90
2019-03-18T01:21:50.315Z,71.81
2019-03-18T01:22:50.308Z,72.47
2019-03-18T01:23:50.317Z,72.00
2019-03-18T01:24:50.321Z,72.19
2019-03-18T01:25:50.311Z,72.00
2019-03-18T01:26:50.333Z,71.81
2019-03-18T01:27:50.334Z,72.09
2019-03-18T01:28:50.336Z,71.90
2019-03-18T01:29:50.306Z,72.19
2019-03-18T01:30:50.313Z,72.00
2019-03-18T01:31:50.354Z,72.09
2019-03-18T01:32:50.338Z,72.38
2019-03-18T01:33:50.341Z,71.90
2019-03-18T01:34:50.393Z,72.25
2019-03-18T01:35:50.344Z,72.44
2019-03-18T01:36:50.327Z,72.25
2019-03-18T01:37:50.334Z,72.44
2019-03-18T01:38:50.403Z,72.81
2019-03-18T01:39:50.363Z,72.63
2019-03-18T01:40:50.406Z,72.81
2019-03-18T01:41:50.362Z,72.63
2019-03-18T01:42:50.372Z,72.72
2019-03-18T01:43:50.387Z,72.53
2019-03-18T01:44:50.380Z,72.44
2019-03-18T01:45:50.378Z,72.63
2019-03-18T01:46:50.370Z,72.63
2019-03-18T01:47:50.383Z,72.72
2019-03-18T01:48:50.413Z,73.10
2019-03-18T01:49:50.382Z,73.19
2019-03-18T01:50:50.379Z,72.91
2019-03-18T01:51:50.521Z,73.29
2019-03-18T01:52:50.404Z,73.00
2019-03-18T01:53:50.480Z,72.91
2019-03-18T01:54:50.409Z,72.34
2019-03-18T01:55:50.398Z,72.53
2019-03-18T01:56:50.415Z,72.63
2019-03-18T01:57:50.403Z,72.91
2019-03-18T01:58:50.461Z,72.72
2019-03-18T01:59:50.437Z,72.81
2019-03-18T02:00:50.442Z,73.29
2019-03-18T02:01:50.438Z,72.44
2019-03-18T02:02:51.900Z,72.44
2019-03-18T02:03:50.466Z,73.00
2019-03-18T02:04:50.444Z,73.29
2019-03-18T02:05:50.427Z,72.91
2019-03-18T02:06:50.465Z,72.81
2019-03-18T02:07:50.446Z,73.48
2019-03-18T02:08:50.471Z,72.72
2019-03-18T02:09:50.453Z,72.91
2019-03-18T02:10:50.468Z,73.29
2019-03-18T02:11:51.299Z,73.38
2019-03-18T02:12:50.475Z,73.48
2019-03-18T02:13:50.534Z,73.57
2019-03-18T02:14:50.493Z,73.19
2019-03-18T02:15:53.707Z,73.10
2019-03-18T02:16:50.482Z,73.00
2019-03-18T02:17:50.476Z,72.81
2019-03-18T02:18:50.490Z,72.63
2019-03-18T02:19:50.470Z,73.38
2019-03-18T02:20:50.530Z,73.76
2019-03-18T02:21:50.502Z,73.19
2019-03-18T02:22:50.498Z,73.76
2019-03-18T02:23:50.501Z,73.48
2019-03-18T02:24:50.493Z,73.96
2019-03-18T02:25:50.564Z,73.29
2019-03-18T02:26:50.520Z,73.76
2019-03-18T02:27:50.533Z,73.57
2019-03-18T02:28:50.513Z,73.19
2019-03-18T02:29:50.550Z,73.67
2019-03-18T02:30:50.508Z,73.48
2019-03-18T02:31:50.554Z,74.05
2019-03-18T02:32:50.519Z,74.05
2019-03-18T02:33:50.543Z,73.10
2019-03-18T02:34:50.555Z,73.25
2019-03-18T02:35:50.532Z,73.10
2019-03-18T02:36:50.560Z,73.57
2019-03-18T02:37:50.590Z,74.15
2019-03-18T02:38:50.531Z,73.86
2019-03-18T02:39:50.549Z,73.67
2019-03-18T02:40:50.575Z,73.76
2019-03-18T02:41:50.640Z,73.29
2019-03-18T02:42:50.556Z,73.44
2019-03-18T02:43:50.581Z,73.67
2019-03-18T02:44:50.570Z,73.63
2019-03-18T02:45:50.608Z,73.29
2019-03-18T02:46:50.568Z,73.44
2019-03-18T02:47:50.662Z,73.48
2019-03-18T02:48:50.589Z,73.67
2019-03-18T02:49:50.577Z,73.10
2019-03-18T02:50:50.679Z,73.10
2019-03-18T02:51:53.073Z,73.00
2019-03-18T02:52:50.651Z,73.10
2019-03-18T02:53:50.594Z,73.10
2019-03-18T02:54:50.581Z,73.48
2019-03-18T02:55:50.615Z,72.91
2019-03-18T02:56:50.605Z,73.10
2019-03-18T02:57:50.633Z,73.29
2019-03-18T02:58:50.616Z,73.38
2019-03-18T02:59:50.618Z,73.10
2019-03-18T03:00:50.632Z,73.29
2019-03-18T03:01:50.619Z,73.07
2019-03-18T03:02:50.635Z,72.72
2019-03-18T03:03:50.613Z,73.29
2019-03-18T03:04:50.631Z,73.54
2019-03-18T03:05:50.663Z,72.68
2019-03-18T03:06:50.629Z,73.16
2019-03-18T03:07:50.621Z,72.63
2019-03-18T03:08:50.630Z,72.72
2019-03-18T03:09:50.642Z,73.19
2019-03-18T03:10:50.667Z,73.25
2019-03-18T03:11:50.649Z,73.25
2019-03-18T03:12:50.653Z,72.97
2019-03-18T03:13:50.658Z,73.35
2019-03-18T03:14:50.672Z,73.44
2019-03-18T03:15:50.660Z,73.16
2019-03-18T03:16:50.786Z,73.57
2019-03-18T03:17:50.675Z,72.97
2019-03-18T03:18:50.684Z,73.29
2019-03-18T03:19:50.709Z,73.07
2019-03-18T03:20:50.677Z,73.25
2019-03-18T03:21:50.671Z,72.88
2019-03-18T03:22:50.706Z,72.91
2019-03-18T03:23:50.677Z,72.44
2019-03-18T03:24:50.690Z,72.97
2019-03-18T03:25:50.709Z,72.88
2019-03-18T03:26:50.698Z,73.07
2019-03-18T03:27:50.734Z,73.25
2019-03-18T03:28:50.718Z,72.97
2019-03-18T03:29:50.706Z,72.78
2019-03-18T03:30:50.733Z,72.59
2019-03-18T03:31:50.714Z,73.35
2019-03-18T03:32:50.722Z,73.72
2019-03-18T03:33:50.744Z,72.97
2019-03-18T03:34:50.748Z,72.97
2019-03-18T03:35:50.713Z,73.44
2019-03-18T03:36:50.720Z,73.07
2019-03-18T03:37:50.725Z,72.97
2019-03-18T03:38:50.773Z,73.25
2019-03-18T03:39:50.735Z,73.35
2019-03-18T03:40:50.738Z,72.97
2019-03-18T03:41:50.737Z,73.16
2019-03-18T03:42:50.743Z,73.25
2019-03-18T03:43:50.748Z,73.16
2019-03-18T03:44:50.786Z,73.07
2019-03-18T03:45:50.772Z,73.25
2019-03-18T03:46:50.754Z,72.97
2019-03-18T03:47:50.771Z,72.97
2019-03-18T03:48:50.758Z,72.88
2019-03-18T03:49:50.801Z,73.25
2019-03-18T03:50:50.778Z,72.88
2019-03-18T03:51:50.808Z,73.44
2019-03-18T03:52:51.300Z,73.54
2019-03-18T03:53:50.780Z,73.16
2019-03-18T03:54:50.808Z,72.68
2019-03-18T03:55:50.802Z,73.07
2019-03-18T03:56:50.780Z,73.44
2019-03-18T03:57:50.812Z,73.63
2019-03-18T03:58:50.834Z,72.97
2019-03-18T03:59:50.847Z,73.07
2019-03-18T04:00:50.816Z,73.44
2019-03-18T04:01:50.787Z,73.25
2019-03-18T04:02:50.792Z,73.63
2019-03-18T04:03:50.801Z,73.54
2019-03-18T04:04:50.812Z,74.11
2019-03-18T04:05:50.868Z,73.82
2019-03-18T04:06:50.819Z,73.35
2019-03-18T04:07:50.815Z,74.01
2019-03-18T04:08:50.824Z,73.82
2019-03-18T04:09:50.890Z,73.44
2019-03-18T04:10:50.841Z,73.25
2019-03-18T04:11:51.317Z,74.01
2019-03-18T04:12:50.854Z,73.82
2019-03-18T04:13:50.826Z,73.82
2019-03-18T04:14:50.826Z,73.25
2019-03-18T04:15:50.844Z,73.25
2019-03-18T04:17:01.635Z,73.44
2019-03-18T04:17:50.884Z,74.01
2019-03-18T04:18:50.870Z,73.92
2019-03-18T04:19:50.871Z,73.82
2019-03-18T04:20:50.862Z,73.44
2019-03-18T04:21:51.156Z,72.97
2019-03-18T04:22:50.882Z,73.54
2019-03-18T04:23:50.914Z,73.63
2019-03-18T04:24:50.910Z,73.54
2019-03-18T04:25:50.870Z,73.92
2019-03-18T04:26:50.902Z,73.63
2019-03-18T04:27:50.913Z,73.07
2019-03-18T04:28:50.873Z,72.97
2019-03-18T04:29:50.874Z,72.97
2019-03-18T04:30:50.905Z,72.68
2019-03-18T04:31:50.892Z,73.63
2019-03-18T04:32:50.909Z,73.25
2019-03-18T04:33:50.912Z,72.59
2019-03-18T04:34:50.896Z,72.78
2019-03-18T04:35:50.894Z,72.97
2019-03-18T04:36:50.890Z,73.35
2019-03-18T04:37:51.034Z,73.16
2019-03-18T04:38:50.900Z,72.97
2019-03-18T04:39:50.932Z,73.54
2019-03-18T04:40:50.912Z,72.97
2019-03-18T04:41:50.918Z,73.54
2019-03-18T04:42:50.927Z,73.25
2019-03-18T04:43:50.973Z,72.78
2019-03-18T04:44:50.934Z,72.97
2019-03-18T04:45:50.936Z,72.53
2019-03-18T04:46:50.933Z,73.10
2019-03-18T04:47:50.949Z,72.91
2019-03-18T04:48:51.093Z,72.44
2019-03-18T04:49:50.952Z,73.19
2019-03-18T04:50:50.947Z,72.91
2019-03-18T04:51:50.968Z,73.38
2019-03-18T04:52:50.961Z,72.81
2019-03-18T04:53:50.943Z,72.25
2019-03-18T04:54:50.996Z,72.25
2019-03-18T04:55:50.952Z,71.96
2019-03-18T04:56:50.959Z,72.25
2019-03-18T04:57:50.972Z,72.44
2019-03-18T04:58:50.980Z,72.91
2019-03-18T04:59:50.980Z,72.06
2019-03-18T05:00:50.989Z,72.06
2019-03-18T05:01:50.987Z,72.34
2019-03-18T05:02:51.081Z,71.86
2019-03-18T05:03:51.007Z,71.96
2019-03-18T05:04:50.978Z,72.34
2019-03-18T05:05:51.019Z,71.86
2019-03-18T05:06:51.083Z,72.63
2019-03-18T05:07:51.083Z,71.96
2019-03-18T05:08:51.002Z,71.67
2019-03-18T05:09:51.044Z,71.96
2019-03-18T05:10:51.013Z,72.15
2019-03-18T05:11:51.049Z,72.06
2019-03-18T05:12:51.068Z,71.30
2019-03-18T05:13:51.108Z,71.48
2019-03-18T05:14:51.042Z,72.15
2019-03-18T05:15:51.036Z,71.77
2019-03-18T05:16:51.025Z,72.15
2019-03-18T05:17:51.047Z,72.15
2019-03-18T05:18:51.100Z,71.77
2019-03-18T05:19:51.137Z,71.58
2019-03-18T05:20:51.035Z,71.96
2019-03-18T05:21:51.075Z,71.58
2019-03-18T05:22:51.094Z,71.20
2019-03-18T05:23:51.043Z,71.20
2019-03-18T05:24:51.091Z,71.58
2019-03-18T05:25:51.117Z,71.67
2019-03-18T05:26:51.068Z,71.77
2019-03-18T05:27:51.079Z,71.67
2019-03-18T05:28:51.084Z,71.67
2019-03-18T05:29:51.152Z,71.30
2019-03-18T05:30:51.102Z,71.01
2019-03-18T05:31:51.097Z,70.73
2019-03-18T05:32:51.116Z,71.04
2019-03-18T05:33:51.117Z,70.95
2019-03-18T05:34:51.108Z,70.76
2019-03-18T05:35:51.130Z,71.14
2019-03-18T05:36:51.197Z,70.86
2019-03-18T05:37:51.543Z,70.92
2019-03-18T05:38:51.125Z,71.33
2019-03-18T05:39:51.107Z,70.95
2019-03-18T05:40:51.141Z,70.57
2019-03-18T05:41:51.161Z,70.76
2019-03-18T05:42:51.872Z,70.76
2019-03-18T05:43:51.173Z,70.38
2019-03-18T05:44:51.127Z,70.38
2019-03-18T05:45:51.137Z,70.38
2019-03-18T05:46:51.160Z,71.52
2019-03-18T05:47:51.192Z,71.23
2019-03-18T05:48:51.160Z,70.67
2019-03-18T05:49:53.775Z,70.48
2019-03-18T05:50:51.170Z,70.38
2019-03-18T05:51:51.283Z,71.23
2019-03-18T05:52:51.221Z,70.67
2019-03-18T05:53:51.161Z,70.19
2019-03-18T05:54:51.196Z,70.19
2019-03-18T05:55:51.181Z,70.29
2019-03-18T05:56:51.159Z,70.29
2019-03-18T05:57:51.185Z,69.91
2019-03-18T05:58:51.189Z,70.10
2019-03-18T05:59:51.187Z,70.29
2019-03-18T06:00:51.193Z,70.57
2019-03-18T06:01:51.194Z,70.38
2019-03-18T06:02:51.200Z,70.29
2019-03-18T06:03:51.197Z,70.19
2019-03-18T06:04:51.312Z,70.29
2019-03-18T06:05:51.252Z,70.29
2019-03-18T06:06:51.215Z,70.38
2019-03-18T06:07:51.228Z,70.67
2019-03-18T06:08:51.212Z,70.38
2019-03-18T06:09:51.250Z,70.29
2019-03-18T06:10:51.252Z,70.19
2019-03-18T06:11:51.239Z,69.81
2019-03-18T06:12:51.235Z,70.10
2019-03-18T06:13:51.238Z,70.48
2019-03-18T06:14:51.280Z,70.00
2019-03-18T06:15:51.270Z,69.91
2019-03-18T06:16:51.292Z,70.00
2019-03-18T06:17:52.976Z,69.66
2019-03-18T06:18:51.262Z,69.15
2019-03-18T06:19:51.306Z,69.34
2019-03-18T06:20:51.281Z,68.61
2019-03-18T06:21:51.260Z,68.52
2019-03-18T06:22:51.330Z,68.71
2019-03-18T06:23:51.275Z,68.33
2019-03-18T06:24:51.327Z,68.23
2019-03-18T06:25:51.304Z,68.13
2019-03-18T06:26:51.310Z,68.90
2019-03-18T06:27:51.294Z,68.42
2019-03-18T06:28:51.291Z,68.13
2019-03-18T06:29:51.299Z,68.52
2019-03-18T06:30:51.389Z,68.04
2019-03-18T06:31:51.321Z,68.23
2019-03-18T06:32:51.346Z,68.23
2019-03-18T06:33:51.326Z,67.85
2019-03-18T06:34:51.528Z,68.23
2019-03-18T06:35:51.335Z,67.76
2019-03-18T06:36:51.353Z,67.85
2019-03-18T06:37:51.328Z,67.79
2019-03-18T06:38:51.344Z,67.60
2019-03-18T06:39:51.342Z,67.41
2019-03-18T06:40:51.421Z,67.60
2019-03-18T06:41:51.382Z,67.03
2019-03-18T06:42:51.371Z,67.32
2019-03-18T06:43:51.340Z,67.79
2019-03-18T06:44:51.360Z,67.60
2019-03-18T06:45:51.404Z,67.13
2019-03-18T06:46:51.373Z,67.41
2019-03-18T06:48:03.819Z,67.32
2019-03-18T06:48:51.600Z,67.60
2019-03-18T06:49:51.450Z,67.41
2019-03-18T06:50:51.363Z,67.03
2019-03-18T06:51:51.398Z,67.13
2019-03-18T06:52:51.413Z,67.22
2019-03-18T06:53:51.395Z,67.22
2019-03-18T06:54:51.421Z,67.60
2019-03-18T06:55:51.434Z,68.07
2019-03-18T06:56:51.429Z,67.60
2019-03-18T06:57:51.389Z,67.03
2019-03-18T06:58:51.427Z,66.94
2019-03-18T06:59:51.417Z,67.32
2019-03-18T07:00:51.415Z,66.74
2019-03-18T07:01:51.474Z,67.03
2019-03-18T07:02:51.423Z,67.22
2019-03-18T07:03:51.424Z,67.22
2019-03-18T07:04:51.425Z,67.60
2019-03-18T07:05:51.495Z,67.79
2019-03-18T07:06:51.440Z,67.60
2019-03-18T07:07:51.454Z,66.94
2019-03-18T07:08:51.458Z,67.22
2019-03-18T07:09:51.460Z,66.84
2019-03-18T07:10:53.351Z,67.22
2019-03-18T07:11:51.500Z,66.94
2019-03-18T07:12:51.568Z,67.35
2019-03-18T07:13:51.479Z,67.32
2019-03-18T07:14:51.478Z,66.87
2019-03-18T07:15:51.494Z,65.60
2019-03-18T07:16:51.502Z,66.02
2019-03-18T07:17:51.555Z,66.20
2019-03-18T07:18:51.559Z,65.92
2019-03-18T07:19:51.538Z,66.02
2019-03-18T07:20:51.495Z,66.11
2019-03-18T07:21:51.560Z,65.45
2019-03-18T07:22:51.540Z,64.59
2019-03-18T07:23:51.513Z,64.69
2019-03-18T07:24:51.521Z,64.87
2019-03-18T07:25:51.526Z,64.50
2019-03-18T07:26:51.574Z,64.40
2019-03-18T07:27:51.592Z,64.40
2019-03-18T07:28:51.549Z,64.78
2019-03-18T07:29:51.553Z,64.31
2019-03-18T07:30:51.544Z,64.50
2019-03-18T07:31:51.559Z,64.69
2019-03-18T07:32:57.655Z,64.21
2019-03-18T07:33:51.608Z,64.31
2019-03-18T07:34:51.573Z,64.11
2019-03-18T07:35:51.564Z,63.64
2019-03-18T07:36:51.584Z,64.11
2019-03-18T07:37:51.598Z,64.78
2019-03-18T07:38:51.630Z,65.16
2019-03-18T07:39:51.575Z,64.59
2019-03-18T07:40:51.639Z,64.50
2019-03-18T07:41:51.617Z,64.21
2019-03-18T07:42:51.631Z,64.50
2019-03-18T07:43:51.598Z,64.59
2019-03-18T07:44:51.658Z,65.25
2019-03-18T07:45:51.647Z,64.31
2019-03-18T07:46:51.648Z,63.54
2019-03-18T07:47:51.689Z,63.45
2019-03-18T07:48:51.632Z,63.83
2019-03-18T07:49:51.633Z,64.11
2019-03-18T07:50:51.638Z,63.92
2019-03-18T07:51:51.663Z,63.96
2019-03-18T07:52:51.718Z,63.29
2019-03-18T07:53:51.666Z,63.76
2019-03-18T07:54:51.682Z,63.57
2019-03-18T07:55:51.656Z,63.67
2019-03-18T07:56:51.708Z,63.48
2019-03-18T07:57:51.699Z,63.29
2019-03-18T07:58:51.699Z,62.91
2019-03-18T07:59:51.673Z,64.53
2019-03-18T08:00:51.778Z,63.86
2019-03-18T08:01:51.702Z,64.62
2019-03-18T08:02:51.696Z,64.05
2019-03-18T08:03:51.821Z,63.29
2019-03-18T08:04:51.709Z,63.76
2019-03-18T08:05:51.712Z,63.57
2019-03-18T08:06:51.707Z,63.76
2019-03-18T08:07:51.713Z,63.57
2019-03-18T08:08:53.502Z,64.72
2019-03-18T08:09:51.807Z,63.20
2019-03-18T08:10:51.751Z,63.76
2019-03-18T08:11:51.732Z,63.57
2019-03-18T08:12:51.779Z,62.69
2019-03-18T08:13:51.739Z,62.81
2019-03-18T08:14:51.811Z,63.17
2019-03-18T08:15:51.795Z,62.53
2019-03-18T08:16:51.764Z,63.45
2019-03-18T08:17:51.785Z,62.72
2019-03-18T08:18:51.768Z,62.81
2019-03-18T08:19:51.801Z,63.57
2019-03-18T08:20:51.806Z,63.73
2019-03-18T08:21:51.790Z,63.86
2019-03-18T08:22:51.842Z,62.97
2019-03-18T08:23:51.788Z,63.29
2019-03-18T08:24:51.810Z,62.97
2019-03-18T08:25:51.829Z,62.49
2019-03-18T08:26:51.835Z,63.26
2019-03-18T08:27:51.810Z,63.17
2019-03-18T08:28:51.914Z,62.34
2019-03-18T08:29:51.818Z,62.91
2019-03-18T08:30:51.885Z,63.01
2019-03-18T08:31:51.831Z,62.30
2019-03-18T08:32:51.837Z,62.78
2019-03-18T08:33:51.838Z,62.12
2019-03-18T08:34:51.836Z,62.59
2019-03-18T08:35:51.872Z,63.01
2019-03-18T08:36:51.869Z,62.12
2019-03-18T08:37:54.691Z,63.07
2019-03-18T08:38:51.875Z,62.72
2019-03-18T08:39:51.860Z,61.96
2019-03-18T08:40:51.921Z,63.01
2019-03-18T08:41:51.919Z,62.91
2019-03-18T08:42:51.882Z,62.05
2019-03-18T08:43:51.919Z,61.96
2019-03-18T08:44:51.940Z,61.96
2019-03-18T08:45:51.900Z,62.05
2019-03-18T08:46:52.332Z,61.67
2019-03-18T08:47:51.935Z,62.05
2019-03-18T08:48:55.917Z,62.81
2019-03-18T08:49:51.932Z,62.91
2019-03-18T08:50:51.920Z,62.34
2019-03-18T08:51:51.966Z,61.58
2019-03-18T08:52:51.976Z,61.96
2019-03-18T08:53:51.939Z,61.29
2019-03-18T08:54:51.930Z,61.38
2019-03-18T08:55:51.939Z,61.58
2019-03-18T08:56:51.987Z,61.67
2019-03-18T08:57:51.998Z,61.38
2019-03-18T08:58:52.007Z,61.96
2019-03-18T08:59:51.962Z,61.58
2019-03-18T09:00:51.974Z,61.29
2019-03-18T09:01:52.037Z,61.86
2019-03-18T09:02:52.033Z,61.42
2019-03-18T09:03:52.029Z,61.04
2019-03-18T09:04:52.003Z,60.75
2019-03-18T09:05:52.016Z,60.75
2019-03-18T09:06:51.999Z,60.27
2019-03-18T09:07:52.020Z,60.27
2019-03-18T09:08:52.027Z,60.46
2019-03-18T09:09:52.025Z,60.66
2019-03-18T09:10:52.010Z,60.46
2019-03-18T09:11:52.026Z,60.56
2019-03-18T09:12:52.040Z,60.56
2019-03-18T09:13:52.053Z,60.08
2019-03-18T09:14:52.135Z,60.27
2019-03-18T09:15:52.145Z,60.27
2019-03-18T09:16:52.065Z,60.75
2019-03-18T09:17:52.040Z,60.94
2019-03-18T09:18:52.345Z,60.24
2019-03-18T09:19:52.087Z,60.27
2019-03-18T09:20:52.066Z,59.80
2019-03-18T09:21:52.073Z,60.08
2019-03-18T09:22:52.132Z,60.08
2019-03-18T09:23:52.087Z,59.70
2019-03-18T09:24:52.091Z,59.99
2019-03-18T09:25:52.148Z,59.99
2019-03-18T09:27:02.009Z,59.51
2019-03-18T09:27:52.104Z,59.89
2019-03-18T09:28:52.096Z,60.46
2019-03-18T09:29:52.261Z,60.66
2019-03-18T09:30:52.131Z,60.56
2019-03-18T09:31:52.121Z,59.89
2019-03-18T09:32:52.129Z,59.99
2019-03-18T09:33:52.134Z,59.61
2019-03-18T09:34:54.651Z,59.80
2019-03-18T09:35:52.194Z,59.80
2019-03-18T09:36:52.154Z,59.13
2019-03-18T09:37:52.160Z,58.75
2019-03-18T09:38:52.179Z,59.13
2019-03-18T09:39:52.178Z,59.06
2019-03-18T09:40:52.200Z,58.97
2019-03-18T09:41:52.201Z,58.69
2019-03-18T09:42:52.192Z,58.30
2019-03-18T09:43:52.212Z,59.74
2019-03-18T09:44:52.214Z,58.97
2019-03-18T09:45:54.482Z,59.26
2019-03-18T09:46:52.289Z,59.54
2019-03-18T09:47:52.275Z,58.33
2019-03-18T09:48:52.207Z,57.95
2019-03-18T09:49:52.257Z,57.48
2019-03-18T09:50:52.216Z,56.90
2019-03-18T09:51:52.275Z,57.19
2019-03-18T09:52:52.270Z,57.28
2019-03-18T09:53:52.379Z,57.00
2019-03-18T09:54:52.235Z,57.09
2019-03-18T09:55:52.331Z,56.55
2019-03-18T09:56:52.257Z,57.00
2019-03-18T09:57:52.301Z,57.00
2019-03-18T09:58:52.277Z,57.48
2019-03-18T09:59:52.387Z,56.71
2019-03-18T10:00:52.341Z,56.24
2019-03-18T10:01:52.282Z,56.24
2019-03-18T10:02:52.346Z,56.30
2019-03-18T10:03:52.305Z,56.59
2019-03-18T10:04:52.310Z,57.64
2019-03-18T10:05:52.326Z,58.11
2019-03-18T10:06:52.415Z,57.64
2019-03-18T10:07:52.322Z,58.40
2019-03-18T10:08:52.369Z,59.13
2019-03-18T10:09:52.402Z,59.13
2019-03-18T10:10:52.350Z,59.42
2019-03-18T10:11:52.431Z,59.03
2019-03-18T10:12:52.402Z,59.13
2019-03-18T10:13:52.367Z,58.84
2019-03-18T10:14:52.374Z,59.26
2019-03-18T10:15:52.368Z,59.13
2019-03-18T10:16:52.391Z,59.16
2019-03-18T10:17:52.397Z,59.61
2019-03-18T10:18:52.364Z,58.94
2019-03-18T10:19:53.608Z,59.03
2019-03-18T10:20:52.419Z,59.06
2019-03-18T10:21:52.403Z,58.37
2019-03-18T10:22:52.469Z,59.42
2019-03-18T10:23:52.422Z,59.23
2019-03-18T10:24:52.426Z,59.23
2019-03-18T10:25:52.411Z,59.23
2019-03-18T10:26:52.419Z,59.61
2019-03-18T10:27:52.424Z,60.27
2019-03-18T10:28:52.469Z,59.23
2019-03-18T10:29:52.437Z,59.80
2019-03-18T10:30:52.499Z,59.45
2019-03-18T10:31:52.449Z,59.16
2019-03-18T10:32:52.446Z,58.97
2019-03-18T10:33:52.465Z,59.64
2019-03-18T10:34:52.478Z,59.54
2019-03-18T10:35:54.113Z,60.11
2019-03-18T10:36:52.464Z,58.87
2019-03-18T10:37:52.609Z,59.80
2019-03-18T10:38:52.877Z,58.94
2019-03-18T10:39:52.487Z,59.32
2019-03-18T10:40:52.549Z,58.94
2019-03-18T10:41:52.501Z,58.94
2019-03-18T10:42:52.506Z,58.50
2019-03-18T10:43:52.510Z,59.35
2019-03-18T10:44:52.539Z,59.16
2019-03-18T10:45:52.684Z,59.26
2019-03-18T10:46:52.538Z,58.30
2019-03-18T10:47:54.728Z,57.92
2019-03-18T10:48:52.569Z,57.45
2019-03-18T10:49:52.554Z,58.14
2019-03-18T10:50:52.567Z,57.48
2019-03-18T10:51:54.488Z,57.28
2019-03-18T10:52:52.572Z,57.48
2019-03-18T10:53:52.607Z,57.76
2019-03-18T10:54:52.620Z,57.38
2019-03-18T10:55:52.612Z,56.71
2019-03-18T10:56:52.583Z,57.38
2019-03-18T10:57:52.633Z,56.43
2019-03-18T10:58:52.582Z,56.24
2019-03-18T10:59:52.591Z,56.65
2019-03-18T11:00:52.596Z,56.07
2019-03-18T11:01:52.611Z,56.46
2019-03-18T11:02:52.646Z,56.36
2019-03-18T11:03:52.671Z,56.36
2019-03-18T11:04:52.618Z,56.07
2019-03-18T11:05:52.678Z,55.53
2019-03-18T11:06:52.635Z,55.79
2019-03-18T11:07:52.661Z,55.60
2019-03-18T11:08:52.837Z,55.69
2019-03-18T11:09:52.705Z,55.69
2019-03-18T11:10:52.658Z,56.07
2019-03-18T11:11:52.705Z,55.50
2019-03-18T11:12:52.692Z,56.36
2019-03-18T11:13:52.739Z,57.00
2019-03-18T11:14:52.689Z,58.43
2019-03-18T11:15:52.749Z,59.22
2019-03-18T11:16:52.754Z,59.31
2019-03-18T11:17:52.704Z,59.99
2019-03-18T11:18:52.719Z,60.08
2019-03-18T11:19:58.398Z,60.08
2019-03-18T11:20:52.746Z,61.13
2019-03-18T11:21:52.771Z,61.22
2019-03-18T11:22:52.750Z,61.51
2019-03-18T11:23:52.759Z,61.60
2019-03-18T11:24:52.796Z,62.56
2019-03-18T11:25:52.751Z,62.65
2019-03-18T11:26:55.258Z,62.27
2019-03-18T11:27:52.812Z,63.04
2019-03-18T11:28:52.793Z,62.75
2019-03-18T11:29:52.787Z,63.20
2019-03-18T11:30:52.788Z,62.62
2019-03-18T11:31:52.792Z,63.57
2019-03-18T11:32:52.807Z,63.48
2019-03-18T11:33:52.844Z,63.48
2019-03-18T11:34:52.826Z,63.86
2019-03-18T11:35:55.610Z,63.86
2019-03-18T11:36:52.837Z,63.39
2019-03-18T11:37:52.837Z,64.05
2019-03-18T11:38:52.850Z,63.76
2019-03-18T11:39:52.854Z,63.86
2019-03-18T11:40:52.851Z,64.72
2019-03-18T11:41:52.857Z,63.86
2019-03-18T11:42:52.844Z,64.43
2019-03-18T11:43:52.847Z,64.53
2019-03-18T11:44:52.956Z,64.53
2019-03-18T11:45:52.859Z,63.39
2019-03-18T11:46:52.880Z,63.86
2019-03-18T11:47:52.891Z,64.24
2019-03-18T11:48:52.880Z,64.05
2019-03-18T11:49:52.884Z,64.15
2019-03-18T11:50:52.910Z,63.57
2019-03-18T11:51:52.900Z,62.81
2019-03-18T11:52:52.926Z,62.91
2019-03-18T11:53:53.007Z,63.00
2019-03-18T11:54:52.939Z,62.34
2019-03-18T11:55:52.936Z,61.99
2019-03-18T11:56:52.988Z,61.32
2019-03-18T11:57:52.942Z,61.41
2019-03-18T11:58:52.960Z,60.84
2019-03-18T11:59:52.977Z,60.55
2019-03-18T12:00:52.979Z,60.94
2019-03-18T12:01:53.019Z,60.55
2019-03-18T12:02:52.962Z,60.55
2019-03-18T12:03:52.979Z,59.41
2019-03-18T12:04:52.991Z,58.26
2019-03-18T12:05:52.996Z,57.89
2019-03-18T12:06:53.110Z,58.29
2019-03-18T12:07:53.000Z,57.89
2019-03-18T12:08:53.010Z,58.01
2019-03-18T12:09:53.000Z,57.92
2019-03-18T12:10:53.020Z,57.63
2019-03-18T12:11:53.013Z,57.53
2019-03-18T12:12:53.072Z,57.03
2019-03-18T12:13:53.065Z,58.01
2019-03-18T12:14:53.034Z,58.29
2019-03-18T12:15:53.055Z,57.24
2019-03-18T12:16:53.071Z,56.65
2019-03-18T12:17:53.135Z,56.77
2019-03-18T12:18:53.080Z,57.24
2019-03-18T12:19:53.068Z,56.67
2019-03-18T12:20:53.112Z,56.48
2019-03-18T12:21:53.123Z,56.20
2019-03-18T12:22:53.424Z,56.01
2019-03-18T12:23:53.088Z,56.20
2019-03-18T12:24:53.113Z,56.10
2019-03-18T12:25:53.108Z,56.20
2019-03-18T12:26:53.133Z,55.91
2019-03-18T12:27:53.132Z,55.82
2019-03-18T12:28:53.147Z,56.29
2019-03-18T12:29:53.133Z,56.20
2019-03-18T12:30:53.133Z,56.26
2019-03-18T12:31:53.169Z,56.65
2019-03-18T12:32:53.210Z,55.69
2019-03-18T12:33:53.203Z,55.69
2019-03-18T12:34:53.185Z,55.43
2019-03-18T12:35:53.183Z,55.60
2019-03-18T12:36:53.176Z,55.53
2019-03-18T12:37:53.177Z,55.53
2019-03-18T12:38:53.239Z,54.10
2019-03-18T12:39:53.225Z,54.29
2019-03-18T12:40:53.227Z,54.57
2019-03-18T12:41:53.207Z,55.05
2019-03-18T12:42:53.283Z,54.29
2019-03-18T12:43:53.324Z,54.38
2019-03-18T12:44:53.289Z,54.64
2019-03-18T12:45:53.255Z,54.83
2019-03-18T12:46:53.243Z,55.88
2019-03-18T12:47:53.238Z,56.26
2019-03-18T12:48:53.305Z,57.22
2019-03-18T12:49:53.838Z,58.55
2019-03-18T12:50:56.311Z,60.08
2019-03-18T12:51:53.257Z,61.22
2019-03-18T12:52:53.302Z,61.99